createdAt,value
2023-04-12T00:00:57.876Z,7.40
2023-04-12T00:01:57.906Z,7.54
2023-04-12T00:02:57.923Z,7.50
2023-04-12T00:03:58.208Z,7.54
2023-04-12T00:04:58.045Z,7.56
2023-04-12T00:05:57.886Z,7.54
2023-04-12T00:06:57.924Z,7.53
2023-04-12T00:07:57.894Z,7.50
2023-04-12T00:08:57.898Z,7.50
2023-04-12T00:09:57.909Z,7.56
2023-04-12T00:10:57.914Z,7.56
2023-04-12T00:11:57.914Z,7.57
2023-04-12T00:12:57.912Z,7.54
2023-04-12T00:13:58.139Z,7.48
2023-04-12T00:14:57.932Z,7.47
2023-04-12T00:15:57.938Z,7.40
2023-04-12T00:16:57.923Z,7.43
2023-04-12T00:17:57.991Z,7.40
2023-04-12T00:18:57.938Z,7.43
2023-04-12T00:19:57.934Z,7.40
2023-04-12T00:20:57.965Z,7.33
2023-04-12T00:21:57.959Z,7.42
2023-04-12T00:22:57.942Z,7.40
2023-04-12T00:23:58.060Z,7.42
2023-04-12T00:24:57.951Z,7.42
2023-04-12T00:25:57.976Z,7.40
2023-04-12T00:26:57.955Z,7.43
2023-04-12T00:27:57.959Z,7.40
2023-04-12T00:28:57.969Z,7.39
2023-04-12T00:29:57.976Z,7.48
2023-04-12T00:30:57.991Z,7.43
2023-04-12T00:31:57.978Z,7.48
2023-04-12T00:32:58.021Z,7.50
2023-04-12T00:33:58.272Z,7.48
2023-04-12T00:34:57.986Z,7.53
2023-04-12T00:35:58.051Z,7.57
2023-04-12T00:36:58.008Z,7.53
2023-04-12T00:37:58.019Z,7.56
2023-04-12T00:38:58.004Z,7.48
2023-04-12T00:39:57.996Z,7.42
2023-04-12T00:40:58.001Z,7.38
2023-04-12T00:41:58.005Z,7.38
2023-04-12T00:42:58.014Z,7.40
2023-04-12T00:43:58.106Z,7.33
2023-04-12T00:44:58.017Z,7.31
2023-04-12T00:45:58.027Z,7.14
2023-04-12T00:46:58.105Z,7.11
2023-04-12T00:47:58.055Z,7.13
2023-04-12T00:48:58.030Z,7.05
2023-04-12T00:49:58.033Z,6.97
2023-04-12T00:50:58.030Z,7.02
2023-04-12T00:51:58.032Z,7.02
2023-04-12T00:52:58.071Z,6.97
2023-04-12T00:53:58.231Z,7.02
2023-04-12T00:54:58.048Z,6.99
2023-04-12T00:55:58.051Z,6.92
2023-04-12T00:56:58.055Z,6.96
2023-04-12T00:57:58.061Z,6.96
2023-04-12T00:58:58.058Z,6.92
2023-04-12T00:59:58.057Z,6.88
2023-04-12T01:00:58.095Z,6.88
2023-04-12T10:37:43.431Z,14.66
2023-04-12T10:38:43.466Z,14.59
2023-04-12T10:39:43.400Z,14.59
2023-04-12T10:40:43.428Z,14.63
2023-04-12T10:41:43.440Z,14.62
2023-04-12T10:42:43.448Z,14.59
2023-04-12T10:43:43.447Z,14.54
2023-04-12T10:44:43.453Z,14.48
2023-04-12T10:45:43.442Z,14.53
2023-04-12T10:46:43.558Z,14.51
2023-04-12T10:47:43.566Z,14.53
2023-04-12T10:48:43.555Z,14.50
2023-04-12T10:49:43.474Z,14.50
2023-04-12T10:50:43.509Z,14.41
2023-04-12T10:51:43.508Z,14.43
2023-04-12T10:52:43.509Z,14.33
2023-04-12T10:53:43.547Z,14.33
2023-04-12T10:54:43.509Z,14.20
2023-04-12T10:55:43.537Z,14.14
2023-04-12T10:56:43.575Z,14.12
2023-04-12T10:57:43.580Z,14.07
2023-04-12T10:58:43.598Z,14.10
2023-04-12T10:59:47.669Z,14.12
2023-04-12T11:00:43.707Z,14.08
2023-04-12T11:01:43.700Z,14.10
2023-04-12T11:02:43.732Z,13.99
2023-04-12T11:03:43.710Z,14.07
2023-04-12T11:04:43.678Z,14.04
2023-04-12T11:05:43.680Z,14.05
2023-04-12T11:06:43.606Z,13.99
2023-04-12T11:07:43.611Z,14.00
2023-04-12T11:08:43.628Z,13.93
2023-04-12T11:09:43.756Z,13.92
2023-04-12T11:10:43.628Z,13.90
2023-04-12T11:11:43.657Z,13.92
2023-04-12T11:12:43.641Z,13.81
2023-04-12T11:13:43.650Z,13.81
2023-04-12T11:14:43.661Z,13.89
2023-04-12T11:15:43.662Z,13.79
2023-04-12T11:16:43.735Z,13.89
2023-04-12T11:17:43.718Z,13.86
2023-04-12T11:18:43.715Z,13.77
2023-04-12T11:19:43.754Z,13.74
2023-04-12T11:20:43.722Z,13.75
2023-04-12T11:21:43.709Z,13.65
2023-04-12T11:22:43.729Z,13.67
2023-04-12T11:23:43.733Z,13.57
2023-04-12T11:24:43.777Z,13.56
2023-04-12T11:25:43.808Z,13.52
2023-04-12T11:26:43.740Z,13.42
2023-04-12T11:27:43.745Z,13.56
2023-04-12T11:28:43.751Z,13.50
2023-04-12T11:29:43.790Z,13.49
2023-04-12T11:30:43.773Z,13.53
2023-04-12T11:31:43.839Z,13.41
2023-04-12T11:32:43.826Z,13.44
2023-04-12T11:33:43.795Z,13.35
2023-04-12T11:34:43.802Z,13.31
2023-04-12T11:35:43.804Z,13.20
2023-04-12T11:36:43.804Z,13.20
2023-04-12T11:37:43.819Z,13.15
2023-04-12T11:38:43.826Z,13.04
2023-04-12T11:39:43.834Z,13.04
2023-04-12T11:40:43.836Z,12.95
2023-04-12T11:41:43.858Z,12.94
2023-04-12T11:42:43.843Z,12.86
2023-04-12T11:43:43.850Z,12.80
2023-04-12T11:44:56.290Z,12.80
2023-04-12T11:45:43.883Z,12.78
2023-04-12T11:46:43.872Z,12.82
2023-04-12T11:47:43.954Z,12.80
2023-04-12T11:48:43.887Z,12.78
2023-04-12T11:49:43.950Z,12.79
2023-04-12T11:50:44.021Z,12.76
2023-04-12T11:51:43.904Z,12.76
2023-04-12T11:52:43.900Z,12.73
2023-04-12T11:53:43.920Z,12.80
2023-04-12T11:54:43.923Z,12.76
2023-04-12T11:55:43.928Z,12.60
2023-04-12T11:56:43.932Z,12.61
2023-04-12T11:57:43.953Z,12.61
2023-04-12T11:58:43.947Z,12.57
2023-04-12T11:59:43.951Z,12.73
2023-04-12T12:00:43.960Z,12.55
2023-04-12T12:01:43.991Z,12.61
2023-04-12T12:02:55.988Z,12.54
2023-04-12T12:03:44.374Z,12.65
2023-04-12T12:04:44.213Z,12.61
2023-04-12T12:05:44.091Z,12.62
2023-04-12T12:06:44.173Z,12.61
2023-04-12T12:07:43.991Z,12.53
2023-04-12T12:08:43.996Z,12.49
2023-04-12T12:09:44.009Z,12.50
2023-04-12T12:10:52.269Z,12.32
2023-04-12T12:11:44.013Z,12.25
2023-04-12T12:12:44.019Z,12.20
2023-04-12T12:13:44.050Z,12.18
2023-04-12T12:14:44.027Z,12.00
2023-04-12T12:15:44.067Z,11.87
2023-04-12T12:16:44.045Z,11.84
2023-04-12T12:17:44.089Z,11.81
2023-04-12T12:18:44.055Z,11.73
2023-04-12T12:19:44.080Z,11.81
2023-04-12T12:20:44.059Z,11.78
2023-04-12T12:21:44.069Z,11.77
2023-04-12T12:22:44.078Z,11.72
2023-04-12T12:23:44.090Z,11.59
2023-04-12T12:24:44.086Z,11.57
2023-04-12T12:25:44.081Z,11.50
2023-04-12T12:26:44.090Z,11.40
2023-04-12T12:27:44.145Z,11.33
2023-04-12T12:28:44.096Z,11.18
2023-04-12T12:29:44.136Z,11.18
2023-04-12T12:30:44.114Z,11.22
2023-04-12T12:31:44.126Z,11.12
2023-04-12T12:32:44.215Z,11.11
2023-04-12T12:34:00.307Z,11.07
2023-04-12T12:34:44.147Z,10.97
2023-04-12T12:35:44.138Z,11.04
2023-04-12T12:36:44.142Z,10.93
2023-04-12T12:37:44.141Z,10.99
2023-04-12T12:38:44.152Z,10.97
2023-04-12T12:39:44.158Z,10.97
2023-04-12T12:40:44.167Z,10.94
2023-04-12T12:41:44.173Z,10.90
2023-04-12T12:57:13.279Z,10.64
2023-04-12T12:58:13.153Z,10.67
2023-04-12T12:59:13.147Z,10.68
2023-04-12T13:00:13.146Z,10.63
2023-04-12T13:01:13.163Z,10.59
2023-04-12T13:02:13.266Z,10.60
2023-04-12T13:03:13.343Z,10.60
2023-04-12T13:04:13.254Z,10.54
2023-04-12T13:05:13.262Z,10.42
2023-04-12T13:06:13.180Z,10.46
2023-04-12T13:07:13.177Z,10.51
2023-04-12T13:08:13.188Z,10.51
2023-04-12T13:09:13.193Z,10.41
2023-04-12T13:10:13.219Z,10.46
2023-04-12T13:11:13.198Z,10.41
2023-04-12T13:12:13.198Z,10.46
2023-04-12T13:13:13.245Z,10.44
2023-04-12T13:14:13.211Z,10.46
2023-04-12T13:15:22.463Z,10.51
2023-04-12T13:16:13.244Z,10.63
2023-04-12T13:17:13.218Z,10.67
2023-04-12T13:18:13.221Z,10.57
2023-04-12T13:19:13.241Z,10.68
2023-04-12T13:20:13.228Z,10.68
2023-04-12T13:21:13.240Z,10.78
2023-04-12T13:22:13.238Z,10.78
2023-04-12T13:23:13.246Z,10.82
2023-04-12T13:24:13.246Z,10.89
2023-04-12T13:25:13.250Z,10.87
2023-04-12T13:26:13.263Z,10.81
2023-04-12T13:27:15.155Z,10.76
2023-04-12T13:28:13.274Z,10.82
2023-04-12T13:29:13.297Z,10.79
2023-04-12T13:30:13.279Z,10.84
2023-04-12T13:31:13.303Z,10.93
2023-04-12T13:32:13.346Z,10.81
2023-04-12T13:33:18.347Z,10.89
2023-04-12T13:34:13.293Z,10.92
2023-04-12T13:35:13.298Z,10.93
2023-04-12T13:36:13.301Z,11.00
2023-04-12T13:37:13.300Z,10.99
2023-04-12T13:38:13.304Z,11.00
2023-04-12T13:39:13.313Z,10.99
2023-04-12T13:40:13.335Z,10.96
2023-04-12T13:41:13.330Z,11.05
2023-04-12T13:42:13.324Z,11.08
2023-04-12T13:43:13.328Z,11.02
2023-04-12T13:44:13.341Z,11.08
2023-04-12T13:45:13.420Z,11.04
2023-04-12T13:46:13.397Z,11.04
2023-04-12T13:47:13.348Z,11.10
2023-04-12T13:48:13.414Z,11.18
2023-04-12T13:49:13.376Z,11.19
2023-04-12T13:50:13.369Z,11.23
2023-04-12T13:51:13.366Z,11.26
2023-04-12T13:52:13.382Z,11.18
2023-04-12T13:53:13.373Z,11.18
2023-04-12T13:54:13.385Z,11.27
2023-04-12T13:55:13.389Z,11.26
2023-04-12T13:56:13.388Z,11.23
2023-04-12T13:57:13.401Z,11.25
2023-04-12T13:58:13.407Z,11.22
2023-04-12T13:59:13.414Z,11.30
2023-04-12T14:00:13.412Z,11.32
2023-04-12T14:01:13.501Z,11.33
2023-04-12T14:02:13.490Z,11.44
2023-04-12T14:03:13.507Z,11.54
2023-04-12T14:04:13.499Z,11.45
2023-04-12T14:05:13.431Z,11.55
2023-04-12T14:06:13.445Z,11.60
2023-04-12T14:07:13.468Z,11.51
2023-04-12T14:08:13.452Z,11.54
2023-04-12T14:09:13.481Z,11.59
2023-04-12T14:10:13.460Z,11.55
2023-04-12T14:11:13.465Z,11.57
2023-04-12T14:12:13.470Z,11.65
2023-04-12T14:13:13.477Z,11.63
2023-04-12T14:14:16.118Z,11.72
2023-04-12T14:15:13.482Z,11.57
2023-04-12T14:16:13.494Z,11.55
2023-04-12T14:17:13.626Z,11.65
2023-04-12T14:18:13.498Z,11.60
2023-04-12T14:19:13.499Z,11.59
2023-04-12T14:20:13.510Z,11.55
2023-04-12T14:21:13.518Z,11.59
2023-04-12T14:22:13.513Z,11.60
2023-04-12T14:23:13.529Z,11.57
2023-04-12T14:24:13.523Z,11.51
2023-04-12T14:25:13.536Z,11.35
2023-04-12T14:26:13.545Z,11.33
2023-04-12T14:27:14.989Z,11.30
2023-04-12T14:28:13.545Z,11.25
2023-04-12T14:29:13.595Z,11.26
2023-04-12T14:30:13.562Z,11.08
2023-04-12T14:31:13.653Z,11.05
2023-04-12T14:32:13.577Z,11.04
2023-04-12T14:33:13.697Z,11.05
2023-04-12T14:34:13.572Z,11.08
2023-04-12T14:35:13.578Z,10.92
2023-04-12T14:36:13.589Z,11.02
2023-04-12T14:37:13.586Z,10.92
2023-04-12T14:38:13.594Z,10.99
2023-04-12T14:39:14.899Z,11.04
2023-04-12T14:40:13.604Z,11.02
2023-04-12T14:41:13.608Z,11.00
2023-04-12T14:42:13.611Z,11.05
2023-04-12T14:43:13.673Z,10.96
2023-04-12T14:44:13.622Z,10.94
2023-04-12T14:45:13.629Z,10.99
2023-04-12T14:46:13.679Z,11.00
2023-04-12T14:47:13.642Z,10.94
2023-04-12T14:48:13.652Z,11.00
2023-04-12T14:49:13.680Z,10.97
2023-04-12T14:50:13.671Z,10.96
2023-04-12T14:51:13.662Z,10.99
2023-04-12T14:52:13.657Z,10.99
2023-04-12T14:53:13.664Z,10.90
2023-04-12T14:54:13.675Z,11.02
2023-04-12T14:55:13.681Z,10.99
2023-04-12T14:56:13.684Z,10.93
2023-04-12T14:57:13.695Z,10.99
2023-04-12T14:58:13.691Z,10.92
2023-04-12T14:59:13.718Z,11.08
2023-04-12T15:00:13.723Z,11.00
2023-04-12T15:01:13.704Z,10.94
2023-04-12T15:02:13.830Z,10.97
2023-04-12T15:03:14.089Z,11.00
2023-04-12T15:04:13.866Z,10.94
2023-04-12T15:05:13.820Z,11.00
2023-04-12T15:06:13.726Z,11.02
2023-04-12T15:07:13.735Z,11.04
2023-04-12T15:08:13.734Z,11.04
2023-04-12T15:09:13.744Z,10.99
2023-04-12T15:10:13.745Z,11.02
2023-04-12T15:11:13.747Z,11.00
2023-04-12T15:12:13.760Z,11.05
2023-04-12T15:13:13.794Z,11.08
2023-04-12T15:14:13.770Z,11.02
2023-04-12T15:15:13.766Z,11.08
2023-04-12T15:16:13.831Z,11.00
2023-04-12T15:17:13.784Z,11.02
2023-04-12T15:18:13.784Z,11.05
2023-04-12T15:19:19.919Z,11.04
2023-04-12T15:20:13.806Z,11.05
2023-04-12T15:21:13.827Z,11.07
2023-04-12T15:22:13.802Z,11.02
2023-04-12T15:25:54.692Z,11.04
2023-04-12T15:26:54.701Z,11.07
2023-04-12T15:27:54.700Z,11.10
2023-04-12T15:28:54.704Z,11.10
2023-04-12T15:29:54.709Z,11.02
2023-04-12T15:30:54.707Z,10.99
2023-04-12T15:31:54.770Z,11.08
2023-04-12T15:32:54.740Z,11.15
2023-04-12T15:33:54.759Z,11.15
2023-04-12T15:34:54.728Z,11.14
2023-04-12T15:35:54.739Z,11.19
2023-04-12T15:36:54.811Z,11.11
2023-04-12T15:37:54.800Z,11.14
2023-04-12T15:38:54.757Z,11.11
2023-04-12T15:39:54.757Z,11.12
2023-04-12T15:40:54.760Z,11.22
2023-04-12T15:41:54.767Z,11.22
2023-04-12T15:42:54.764Z,11.17
2023-04-12T15:43:54.773Z,11.22
2023-04-12T15:44:54.784Z,11.27
2023-04-12T15:45:55.081Z,11.27
2023-04-12T15:47:07.851Z,11.29
2023-04-12T15:47:54.852Z,11.19
2023-04-12T15:48:54.808Z,11.18
2023-04-12T15:49:54.807Z,11.12
2023-04-12T15:50:54.804Z,11.10
2023-04-12T15:51:54.834Z,11.18
2023-04-12T15:52:54.848Z,11.11
2023-04-12T15:53:54.829Z,11.23
2023-04-12T15:54:54.824Z,11.17
2023-04-12T15:55:55.019Z,11.15
2023-04-12T15:56:54.845Z,11.18
2023-04-12T15:57:54.856Z,11.14
2023-04-12T15:58:54.942Z,11.17
2023-04-12T15:59:54.848Z,11.17
2023-04-12T16:00:55.073Z,11.07
2023-04-12T16:01:54.934Z,11.14
2023-04-12T16:02:55.189Z,11.05
2023-04-12T16:03:55.061Z,11.04
2023-04-12T16:04:54.938Z,11.05
2023-04-12T16:05:55.087Z,11.04
2023-04-12T16:06:54.883Z,11.00
2023-04-12T16:07:54.894Z,11.08
2023-04-12T16:08:54.925Z,10.94
2023-04-12T16:09:54.897Z,11.10
2023-04-12T16:10:54.942Z,11.04
2023-04-12T16:11:54.920Z,10.99
2023-04-12T16:12:54.919Z,10.94
2023-04-12T16:13:54.972Z,10.96
2023-04-12T16:14:54.920Z,11.02
2023-04-12T16:15:54.929Z,11.00
2023-04-12T16:16:54.933Z,11.04
2023-04-12T16:17:54.964Z,11.04
2023-04-12T16:18:54.951Z,11.00
2023-04-12T16:19:54.950Z,11.05
2023-04-12T16:20:54.976Z,11.10
2023-04-12T16:21:54.974Z,11.07
2023-04-12T16:22:54.985Z,11.07
2023-04-12T16:23:54.963Z,11.04
2023-04-12T16:24:54.995Z,11.00
2023-04-12T16:25:54.981Z,11.10
2023-04-12T16:26:54.981Z,11.07
2023-04-12T16:27:54.988Z,11.04
2023-04-12T16:28:55.100Z,11.11
2023-04-12T16:29:55.000Z,11.18
2023-04-12T16:30:55.046Z,11.26
2023-04-12T16:31:55.086Z,11.27
2023-04-12T16:32:55.057Z,11.22
2023-04-12T16:33:55.016Z,11.30
2023-04-12T16:34:55.023Z,11.33
2023-04-12T16:35:55.032Z,11.30
2023-04-12T16:36:55.024Z,11.35
2023-04-12T16:37:55.038Z,11.32
2023-04-12T16:38:55.492Z,11.35
2023-04-12T16:39:55.071Z,11.36
2023-04-12T16:40:55.074Z,11.41
2023-04-12T16:41:55.053Z,11.43
2023-04-12T16:42:55.057Z,11.43
2023-04-12T16:43:55.077Z,11.41
2023-04-12T16:44:55.079Z,11.43
2023-04-12T16:45:55.072Z,11.44
2023-04-12T16:46:55.223Z,11.37
2023-04-12T16:47:55.108Z,11.36
2023-04-12T16:48:55.235Z,11.36
2023-04-12T16:49:55.098Z,11.35
2023-04-12T16:50:55.100Z,11.35
2023-04-12T16:51:55.111Z,11.36
2023-04-12T16:52:55.108Z,11.35
2023-04-12T16:53:55.205Z,11.33
2023-04-12T16:54:55.120Z,11.32
2023-04-12T16:55:56.752Z,11.30
2023-04-12T16:56:55.153Z,11.33
2023-04-12T16:57:55.153Z,11.32
2023-04-12T16:58:55.143Z,11.36
2023-04-12T16:59:55.196Z,11.35
2023-04-12T17:00:55.150Z,11.33
2023-04-12T17:01:55.163Z,11.27
2023-04-12T17:02:55.262Z,11.32
2023-04-12T17:03:55.332Z,11.22
2023-04-12T17:04:55.167Z,11.19
2023-04-12T17:05:55.179Z,11.22
2023-04-12T17:06:55.188Z,11.25
2023-04-12T17:07:55.185Z,11.23
2023-04-12T17:08:55.219Z,11.26
2023-04-12T17:09:55.198Z,11.22
2023-04-12T17:10:55.209Z,11.25
2023-04-12T17:11:55.200Z,11.19
2023-04-12T17:12:55.256Z,11.22
2023-04-12T17:13:55.219Z,11.26
2023-04-12T17:14:55.228Z,11.17
2023-04-12T17:15:55.266Z,11.08
2023-04-12T17:16:55.233Z,11.08
2023-04-12T17:17:55.260Z,11.10
2023-04-12T17:18:55.237Z,11.07
2023-04-12T17:19:55.243Z,11.04
2023-04-12T17:20:55.244Z,11.08
2023-04-12T17:21:55.249Z,11.07
2023-04-12T17:22:55.257Z,11.07
2023-04-12T17:23:55.264Z,10.99
2023-04-12T17:24:55.285Z,11.04
2023-04-12T17:25:55.266Z,11.08
2023-04-12T17:26:55.282Z,11.07
2023-04-12T17:27:55.296Z,11.04
2023-04-12T17:28:55.311Z,11.12
2023-04-12T17:29:55.288Z,11.18
2023-04-12T17:30:55.302Z,11.11
2023-04-12T17:31:55.308Z,11.18
2023-04-12T17:32:55.326Z,11.23
2023-04-12T17:33:55.527Z,11.17
2023-04-12T17:34:55.327Z,11.22
2023-04-12T17:35:55.329Z,11.17
2023-04-12T17:36:55.329Z,11.26
2023-04-12T17:37:55.344Z,11.19
2023-04-12T17:38:57.129Z,11.22
2023-04-12T17:39:55.346Z,11.22
2023-04-12T17:40:55.354Z,11.19
2023-04-12T17:41:55.353Z,11.22
2023-04-12T17:42:55.356Z,11.19
2023-04-12T17:43:55.559Z,11.26
2023-04-12T17:44:55.468Z,11.22
2023-04-12T17:45:55.411Z,11.18
2023-04-12T17:46:55.380Z,11.17
2023-04-12T17:47:55.433Z,11.11
2023-04-12T17:48:55.507Z,11.12
2023-04-12T17:49:55.397Z,11.12
2023-04-12T17:50:55.390Z,11.10
2023-04-12T17:51:55.390Z,11.14
2023-04-12T17:52:55.408Z,11.05
2023-04-12T17:53:55.415Z,11.04
2023-04-12T17:54:55.408Z,11.02
2023-04-12T17:55:55.421Z,11.04
2023-04-12T17:56:55.418Z,11.02
2023-04-12T17:57:55.435Z,11.05
2023-04-12T17:58:55.617Z,11.04
2023-04-12T17:59:55.445Z,11.05
2023-04-12T18:00:55.463Z,11.05
2023-04-12T18:01:55.580Z,11.10
2023-04-12T18:02:55.549Z,11.00
2023-04-12T18:03:55.583Z,10.94
2023-04-12T18:04:55.470Z,10.99
2023-04-12T18:05:55.476Z,11.00
2023-04-12T18:06:55.477Z,10.97
2023-04-12T18:07:55.472Z,10.93
2023-04-12T18:08:55.627Z,10.96
2023-04-12T18:09:55.485Z,10.97
2023-04-12T18:10:55.510Z,10.93
2023-04-12T18:11:55.497Z,10.96
2023-04-12T18:12:55.497Z,10.97
2023-04-12T18:13:55.706Z,11.08
2023-04-12T18:14:55.532Z,11.02
2023-04-12T18:15:55.534Z,11.10
2023-04-12T18:16:55.549Z,11.04
2023-04-12T18:17:55.565Z,11.07
2023-04-12T18:18:55.585Z,11.07
2023-04-12T18:19:55.545Z,11.04
2023-04-12T18:20:55.535Z,11.04
2023-04-12T18:21:55.539Z,11.00
2023-04-12T18:22:55.544Z,11.00
2023-04-12T18:23:55.594Z,11.04
2023-04-12T18:24:55.563Z,11.10
2023-04-12T18:25:55.559Z,11.02
2023-04-12T18:26:55.572Z,10.99
2023-04-12T18:27:55.576Z,11.00
2023-04-12T18:28:55.680Z,11.11
2023-04-12T18:29:55.585Z,11.08
2023-04-12T18:30:57.223Z,11.07
2023-04-12T18:31:55.627Z,11.08
2023-04-12T18:32:55.657Z,11.11
2023-04-12T18:33:55.767Z,11.12
2023-04-12T18:34:55.602Z,11.14
2023-04-12T18:35:55.607Z,11.18
2023-04-12T18:36:55.621Z,11.17
2023-04-12T18:37:55.624Z,11.08
2023-04-12T18:38:55.641Z,11.17
2023-04-12T18:39:55.669Z,11.18
2023-04-12T18:40:55.637Z,11.17
2023-04-12T18:41:55.644Z,11.15
2023-04-12T18:42:55.644Z,11.05
2023-04-12T18:43:55.677Z,11.05
2023-04-12T18:44:55.652Z,11.04
2023-04-12T18:45:55.666Z,11.11
2023-04-12T18:46:55.750Z,11.05
2023-04-12T18:47:55.704Z,11.07
2023-04-12T18:48:55.692Z,11.08
2023-04-12T18:49:55.681Z,11.18
2023-04-12T18:50:55.688Z,11.08
2023-04-12T18:51:55.692Z,11.07
2023-04-12T18:52:55.700Z,11.04
2023-04-12T18:53:55.753Z,10.99
2023-04-12T18:54:55.702Z,11.05
2023-04-12T18:55:55.715Z,11.11
2023-04-12T18:56:55.711Z,11.10
2023-04-12T18:57:55.720Z,11.08
2023-04-12T18:58:56.339Z,11.17
2023-04-12T18:59:55.788Z,11.11
2023-04-12T19:00:55.753Z,11.22
2023-04-12T19:01:55.776Z,11.26
2023-04-12T19:02:55.813Z,11.27
2023-04-12T19:03:55.969Z,11.19
2023-04-12T19:04:55.775Z,11.14
2023-04-12T19:05:55.758Z,11.07
2023-04-12T19:06:55.761Z,11.08
2023-04-12T19:07:55.759Z,11.05
2023-04-12T19:08:55.766Z,11.02
2023-04-12T19:09:55.773Z,10.99
2023-04-12T19:10:55.781Z,11.02
2023-04-12T19:11:55.778Z,11.02
2023-04-12T19:12:55.782Z,11.00
2023-04-12T19:13:55.872Z,11.05
2023-04-12T19:14:55.793Z,11.14
2023-04-12T19:15:55.845Z,11.08
2023-04-12T19:16:55.811Z,11.10
2023-04-12T19:17:55.861Z,11.15
2023-04-12T19:18:55.819Z,11.08
2023-04-12T19:19:55.833Z,11.18
2023-04-12T19:20:55.842Z,11.27
2023-04-12T19:21:55.914Z,11.26
2023-04-12T19:22:55.829Z,11.32
2023-04-12T19:23:56.004Z,11.29
2023-04-12T19:24:55.840Z,11.26
2023-04-12T19:25:55.849Z,11.25
2023-04-12T19:26:55.856Z,11.19
2023-04-12T19:27:55.859Z,11.23
2023-04-12T19:28:55.950Z,11.11
2023-04-12T19:29:55.866Z,11.22
2023-04-12T19:30:55.867Z,11.15
2023-04-12T19:31:55.972Z,11.23
2023-04-12T19:32:55.908Z,11.26
2023-04-12T19:33:56.009Z,11.23
2023-04-12T19:34:55.892Z,11.23
2023-04-12T19:35:55.902Z,11.18
2023-04-12T19:36:55.927Z,11.11
2023-04-12T19:37:55.907Z,11.14
2023-04-12T19:38:56.150Z,11.14
2023-04-12T19:39:55.914Z,11.12
2023-04-12T19:40:55.918Z,11.05
2023-04-12T19:41:55.920Z,11.10
2023-04-12T19:42:55.926Z,11.08
2023-04-12T19:43:55.957Z,11.10
2023-04-12T19:44:55.935Z,11.05
2023-04-12T19:45:55.981Z,11.08
2023-04-12T19:46:55.954Z,11.07
2023-04-12T19:47:55.977Z,11.10
2023-04-12T19:48:56.129Z,11.08
2023-04-12T19:49:55.958Z,11.05
2023-04-12T19:50:55.974Z,11.14
2023-04-12T19:51:55.984Z,11.07
2023-04-12T19:52:55.994Z,11.10
2023-04-12T19:53:56.063Z,11.05
2023-04-12T19:54:55.989Z,11.07
2023-04-12T19:55:55.998Z,11.05
2023-04-12T19:56:56.011Z,11.07
2023-04-12T19:57:56.001Z,10.99
2023-04-12T19:58:56.136Z,11.07
2023-04-12T19:59:56.012Z,11.00
2023-04-12T20:00:56.041Z,10.97
2023-04-12T20:01:56.060Z,11.05
2023-04-12T20:02:56.073Z,11.08
2023-04-12T20:03:56.114Z,11.10
2023-04-12T20:04:56.029Z,11.07
2023-04-12T20:05:56.033Z,11.05
2023-04-12T20:06:56.037Z,11.07
2023-04-12T20:07:56.251Z,11.02
2023-04-12T20:08:56.402Z,11.00
2023-04-12T20:09:56.052Z,10.99
2023-04-12T20:10:56.064Z,10.97
2023-04-12T20:11:56.060Z,10.96
2023-04-12T20:12:56.072Z,10.96
2023-04-12T20:13:56.086Z,11.00
2023-04-12T20:14:56.084Z,10.97
2023-04-12T20:15:56.087Z,11.00
2023-04-12T20:16:56.155Z,11.00
2023-04-12T20:17:56.181Z,10.99
2023-04-12T20:18:56.304Z,10.97
2023-04-12T20:19:57.395Z,11.02
2023-04-12T20:20:56.116Z,11.08
2023-04-12T20:21:56.156Z,10.97
2023-04-12T20:22:56.121Z,11.10
2023-04-12T20:23:56.148Z,11.00
2023-04-12T20:24:56.148Z,10.97
2023-04-12T20:25:56.147Z,10.97
2023-04-12T20:26:56.132Z,11.00
2023-04-12T20:27:56.138Z,10.96
2023-04-12T20:28:56.290Z,10.96
2023-04-12T20:29:56.168Z,10.94
2023-04-12T20:30:56.205Z,10.99
2023-04-12T20:31:56.166Z,10.97
2023-04-12T20:32:56.213Z,11.00
2023-04-12T20:33:56.180Z,11.05
2023-04-12T20:34:56.183Z,11.05
2023-04-12T20:35:56.175Z,11.02
2023-04-12T20:36:56.185Z,11.05
2023-04-12T20:37:56.191Z,11.08
2023-04-12T20:38:56.403Z,11.15
2023-04-12T20:39:56.199Z,11.08
2023-04-12T20:40:56.220Z,11.12
2023-04-12T20:41:56.210Z,11.14
2023-04-12T20:42:56.214Z,11.14
2023-04-12T20:43:56.220Z,11.14
2023-04-12T20:44:56.225Z,11.08
2023-04-12T20:45:56.293Z,11.17
2023-04-12T20:46:56.313Z,11.17
2023-04-12T20:47:56.288Z,11.10
2023-04-12T20:48:56.811Z,11.11
2023-04-12T20:49:56.260Z,11.10
2023-04-12T20:50:56.287Z,11.08
2023-04-12T20:51:56.294Z,11.11
2023-04-12T20:52:56.262Z,11.11
2023-04-12T20:53:56.267Z,11.08
2023-04-12T20:54:56.279Z,11.18
2023-04-12T20:55:56.274Z,11.15
2023-04-12T20:56:56.304Z,11.05
2023-04-12T20:57:56.280Z,11.14
2023-04-12T20:58:56.666Z,11.12
2023-04-12T20:59:56.288Z,11.17
2023-04-12T21:00:56.291Z,11.19
2023-04-12T21:01:56.370Z,11.19
2023-04-12T21:02:56.457Z,11.18
2023-04-12T21:03:56.425Z,11.25
2023-04-12T21:04:58.803Z,11.19
2023-04-12T21:05:56.321Z,11.15
2023-04-12T21:06:56.322Z,11.25
2023-04-12T21:07:56.324Z,11.22
2023-04-12T21:08:56.717Z,11.25
2023-04-12T21:09:56.345Z,11.18
2023-04-12T21:10:56.353Z,11.25
2023-04-12T21:11:56.352Z,11.22
2023-04-12T21:12:56.369Z,11.26
2023-04-12T21:13:56.353Z,11.19
2023-04-12T21:14:56.366Z,11.23
2023-04-12T21:15:56.397Z,11.22
2023-04-12T21:16:56.378Z,11.22
2023-04-12T21:17:56.430Z,11.23
2023-04-12T21:18:56.655Z,11.25
2023-04-12T21:19:56.384Z,11.17
2023-04-12T21:20:56.388Z,11.17
2023-04-12T21:21:56.405Z,11.15
2023-04-12T21:22:56.406Z,11.10
2023-04-12T21:23:56.418Z,11.08
2023-04-12T21:24:56.410Z,11.00
2023-04-12T21:25:56.419Z,11.04
2023-04-12T21:26:56.427Z,11.10
2023-04-12T21:27:56.429Z,11.08
2023-04-12T21:28:56.634Z,10.99
2023-04-12T21:29:56.435Z,10.99
2023-04-12T21:30:56.446Z,10.97
2023-04-12T21:31:56.505Z,11.04
2023-04-12T21:32:56.516Z,10.97
2023-04-12T21:33:56.458Z,11.00
2023-04-12T21:34:56.461Z,10.94
2023-04-12T21:35:56.498Z,11.02
2023-04-12T21:36:56.468Z,10.99
2023-04-12T21:37:56.478Z,10.96
2023-04-12T21:38:56.705Z,10.93
2023-04-12T21:39:56.480Z,10.92
2023-04-12T21:40:56.492Z,10.87
2023-04-12T21:41:56.497Z,10.89
2023-04-12T21:42:56.499Z,10.86
2023-04-12T21:43:56.504Z,10.97
2023-04-12T21:44:56.589Z,10.96
2023-04-12T21:45:56.616Z,10.93
2023-04-12T21:46:56.511Z,10.89
2023-04-12T21:47:56.542Z,10.89
2023-04-12T21:48:56.731Z,10.84
2023-04-12T21:49:56.525Z,10.87
2023-04-12T21:50:56.530Z,10.89
2023-04-12T21:51:56.536Z,10.82
2023-04-12T21:52:56.545Z,10.82
2023-04-12T21:53:56.552Z,10.78
2023-04-12T21:54:56.558Z,10.79
2023-04-12T21:55:56.552Z,10.72
2023-04-12T21:56:56.568Z,10.75
2023-04-12T21:57:56.575Z,10.72
2023-04-12T21:58:56.806Z,10.64
2023-04-12T21:59:56.573Z,10.63
2023-04-12T22:00:56.630Z,10.60
2023-04-12T22:01:56.644Z,10.51
2023-04-12T22:02:56.744Z,10.51
2023-04-12T22:03:56.697Z,10.51
2023-04-12T22:04:56.593Z,10.51
2023-04-12T22:06:04.057Z,10.51
2023-04-12T22:06:56.612Z,10.44
2023-04-12T22:07:56.606Z,10.42
2023-04-12T22:08:56.838Z,10.33
2023-04-12T22:09:56.621Z,10.33
2023-04-12T22:10:56.626Z,10.33
2023-04-12T22:11:56.631Z,10.38
2023-04-12T22:12:56.638Z,10.28
2023-04-12T22:13:56.642Z,10.42
2023-04-12T22:14:56.652Z,10.30
2023-04-12T22:15:56.644Z,10.41
2023-04-12T22:16:56.699Z,10.26
2023-04-12T22:17:56.723Z,10.34
2023-04-12T22:18:56.865Z,10.35
2023-04-12T22:19:56.672Z,10.34
2023-04-12T22:20:56.660Z,10.31
2023-04-12T22:21:56.667Z,10.33
2023-04-12T22:22:56.679Z,10.34
2023-04-12T22:23:57.144Z,10.30
2023-04-12T22:24:56.680Z,10.40
2023-04-12T22:25:56.692Z,10.33
2023-04-12T22:26:56.694Z,10.30
2023-04-12T22:27:56.694Z,10.30
2023-04-12T22:28:56.731Z,10.23
2023-04-12T22:29:56.703Z,10.23
2023-04-12T22:30:56.755Z,10.20
2023-04-12T22:31:56.711Z,10.23
2023-04-12T22:32:56.773Z,10.25
2023-04-12T22:33:56.987Z,10.30
2023-04-12T22:35:05.326Z,10.23
2023-04-12T22:35:56.724Z,10.20
2023-04-12T22:36:56.731Z,10.12
2023-04-12T22:37:56.738Z,10.19
2023-04-12T22:38:56.763Z,10.25
2023-04-12T22:39:56.748Z,10.15
2023-04-12T22:40:56.755Z,10.22
2023-04-12T22:41:56.762Z,10.22
2023-04-12T22:42:56.762Z,10.10
2023-04-12T22:43:56.858Z,10.13
2023-04-12T22:44:56.762Z,10.15
2023-04-12T22:45:56.780Z,10.10
2023-04-12T22:46:56.786Z,10.15
2023-04-12T22:47:56.795Z,10.16